createdAt,value
2023-05-22T00:01:06.849Z,65.30
2023-05-22T00:03:37.342Z,60.75
2023-05-22T00:06:10.195Z,53.76
2023-05-22T00:08:38.518Z,51.86
2023-05-22T00:11:06.814Z,52.61
2023-05-22T00:13:35.381Z,53.09
2023-05-22T00:16:03.488Z,53.93
2023-05-22T00:18:31.339Z,55.08
2023-05-22T00:21:01.042Z,56.53
2023-05-22T00:23:29.990Z,56.81
2023-05-22T00:25:59.990Z,57.72
2023-05-22T00:28:29.105Z,57.82
2023-05-22T00:30:56.999Z,58.33
2023-05-22T00:33:25.118Z,58.79
2023-05-22T00:35:56.445Z,59.60
2023-05-22T00:38:42.525Z,59.79
2023-05-22T00:41:12.118Z,59.55
2023-05-22T00:43:41.610Z,60.46
2023-05-22T00:46:10.067Z,61.15
2023-05-22T00:48:38.363Z,66.38
2023-05-22T00:51:08.073Z,71.72
2023-05-22T00:53:37.270Z,66.70
2023-05-22T00:56:07.455Z,61.27
2023-05-22T00:58:36.202Z,54.02
2023-05-22T01:01:07.837Z,52.08
2023-05-22T01:03:44.921Z,53.40
2023-05-22T01:06:18.606Z,54.50
2023-05-22T01:08:46.538Z,55.29
2023-05-22T01:11:26.631Z,56.06
2023-05-22T01:14:21.577Z,56.40
2023-05-22T01:17:38.385Z,56.83
2023-05-22T01:20:14.505Z,57.81
2023-05-22T01:23:08.901Z,58.79
2023-05-22T01:26:28.232Z,59.12
2023-05-22T01:28:58.887Z,59.36
2023-05-22T01:31:31.588Z,60.69
2023-05-22T01:34:03.567Z,60.89
2023-05-22T01:36:37.745Z,66.41
2023-05-22T01:39:08.228Z,69.45
2023-05-22T01:41:36.545Z,62.30
2023-05-22T01:44:04.691Z,55.38
2023-05-22T01:46:33.170Z,52.36
2023-05-22T01:49:01.104Z,53.26
2023-05-22T01:51:43.733Z,54.02
2023-05-22T01:54:46.403Z,55.11
2023-05-22T01:57:35.496Z,56.12
2023-05-22T02:00:11.040Z,56.83
2023-05-22T02:02:46.796Z,57.86
2023-05-22T02:05:19.128Z,58.00
2023-05-22T02:07:49.493Z,58.38
2023-05-22T02:10:18.961Z,58.56
2023-05-22T02:12:47.526Z,58.84
2023-05-22T02:15:16.391Z,59.47
2023-05-22T02:17:45.746Z,59.47
2023-05-22T02:20:16.115Z,60.10
2023-05-22T02:22:47.131Z,60.96
2023-05-22T02:25:18.197Z,67.03
2023-05-22T02:27:48.115Z,68.46
2023-05-22T02:30:16.316Z,62.63
2023-05-22T02:32:44.404Z,55.69
2023-05-22T02:35:12.575Z,52.78
2023-05-22T02:37:41.102Z,54.00
2023-05-22T02:40:10.469Z,55.10
2023-05-22T02:42:39.599Z,56.14
2023-05-22T02:45:08.756Z,56.43
2023-05-22T02:47:36.741Z,57.16
2023-05-22T02:50:05.211Z,58.32
2023-05-22T02:52:33.104Z,58.50
2023-05-22T02:55:01.449Z,59.72
2023-05-22T02:57:29.858Z,59.81
2023-05-22T02:59:59.687Z,60.73
2023-05-22T03:02:32.628Z,61.00
2023-05-22T03:05:00.906Z,60.88
2023-05-22T03:07:30.731Z,66.56
2023-05-22T03:09:58.723Z,68.99
2023-05-22T03:12:29.326Z,63.47
2023-05-22T03:14:57.447Z,55.51
2023-05-22T03:17:25.627Z,52.54
2023-05-22T03:19:54.177Z,53.15
2023-05-22T03:22:23.198Z,54.33
2023-05-22T03:24:51.358Z,54.89
2023-05-22T03:27:20.390Z,55.36
2023-05-22T03:29:48.273Z,56.20
2023-05-22T03:32:16.177Z,56.58
2023-05-22T03:34:44.073Z,57.35
2023-05-22T03:37:12.034Z,57.64
2023-05-22T03:39:40.119Z,58.09
2023-05-22T03:42:09.768Z,58.81
2023-05-22T03:44:37.635Z,59.15
2023-05-22T03:47:08.141Z,59.64
2023-05-22T03:49:37.194Z,60.00
2023-05-22T03:52:07.513Z,60.61
2023-05-22T03:54:37.189Z,60.75
2023-05-22T03:57:05.593Z,65.38
2023-05-22T03:59:35.187Z,69.74
2023-05-22T04:02:03.439Z,63.51
2023-05-22T04:04:34.225Z,55.74
2023-05-22T04:07:02.732Z,52.60
2023-05-22T04:09:32.423Z,53.08
2023-05-22T04:12:03.875Z,54.38
2023-05-22T04:14:34.121Z,55.68
2023-05-22T04:17:01.941Z,56.93
2023-05-22T04:19:33.595Z,57.74
2023-05-22T04:22:01.650Z,57.97
2023-05-22T04:24:29.811Z,57.92
2023-05-22T04:27:00.375Z,58.09
2023-05-22T04:29:29.965Z,58.03
2023-05-22T04:31:57.923Z,58.51
2023-05-22T04:34:26.376Z,58.29
2023-05-22T04:36:55.144Z,57.92
2023-05-22T04:39:26.360Z,57.41
2023-05-22T04:41:55.240Z,58.00
2023-05-22T04:44:23.880Z,57.88
2023-05-22T04:46:52.163Z,57.81
2023-05-22T04:49:20.794Z,58.21
2023-05-22T04:51:48.752Z,57.82
2023-05-22T04:54:17.676Z,58.01
2023-05-22T04:56:45.527Z,57.95
2023-05-22T04:59:16.435Z,57.79
2023-05-22T05:01:45.611Z,57.92
2023-05-22T05:04:13.765Z,57.73
2023-05-22T05:06:41.856Z,57.74
2023-05-22T05:09:10.691Z,57.47
2023-05-22T05:11:38.581Z,57.36
2023-05-22T05:14:07.860Z,57.33
2023-05-22T05:16:36.142Z,57.28
2023-05-22T05:19:04.128Z,57.04
2023-05-22T05:21:32.315Z,56.86
2023-05-22T05:24:00.631Z,57.00
2023-05-22T05:26:28.677Z,56.80
2023-05-22T05:28:56.944Z,56.52
2023-05-22T05:31:26.270Z,56.11
2023-05-22T05:33:58.210Z,56.15
2023-05-22T05:36:29.099Z,56.01
2023-05-22T05:38:58.597Z,55.87
2023-05-22T05:41:28.792Z,55.54
2023-05-22T05:44:00.672Z,55.30
2023-05-22T05:46:28.795Z,55.38
2023-05-22T05:48:58.534Z,55.16
2023-05-22T05:51:26.676Z,55.06
2023-05-22T05:53:56.225Z,54.76
2023-05-22T05:56:25.178Z,54.54
2023-05-22T05:58:54.273Z,54.44
2023-05-22T06:01:27.141Z,54.62
2023-05-22T06:03:57.044Z,54.73
2023-05-22T06:06:26.391Z,54.46
2023-05-22T06:08:54.688Z,54.18
2023-05-22T06:11:23.349Z,53.98
2023-05-22T06:13:51.553Z,53.72
2023-05-22T06:16:20.421Z,53.39
2023-05-22T06:18:49.937Z,52.93
2023-05-22T06:21:21.405Z,52.69
2023-05-22T06:23:49.905Z,52.41
2023-05-22T06:26:18.502Z,52.18
2023-05-22T06:28:46.400Z,52.37
2023-05-22T06:31:14.569Z,52.37
2023-05-22T06:33:43.601Z,52.19
2023-05-22T06:36:12.215Z,52.08
2023-05-22T06:38:40.636Z,51.79
2023-05-22T06:41:08.585Z,51.78
2023-05-22T06:43:36.675Z,51.44
2023-05-22T06:46:05.728Z,51.28
2023-05-22T06:48:35.883Z,50.97
2023-05-22T06:51:04.472Z,50.52
2023-05-22T06:53:32.539Z,49.71
2023-05-22T06:56:01.581Z,49.20
2023-05-22T06:58:29.586Z,48.64
2023-05-22T07:00:58.308Z,48.69
2023-05-22T07:03:27.462Z,48.28
2023-05-22T07:05:59.739Z,48.10
2023-05-22T07:08:30.443Z,48.02
2023-05-22T07:10:58.821Z,47.86
2023-05-22T07:13:29.002Z,46.87
2023-05-22T07:15:57.305Z,47.07
2023-05-22T07:18:26.309Z,46.87
2023-05-22T07:20:56.173Z,46.71
2023-05-22T07:23:26.200Z,46.46
2023-05-22T07:25:54.573Z,45.50
2023-05-22T07:28:22.699Z,45.37
2023-05-22T07:30:51.352Z,45.70
2023-05-22T07:33:19.711Z,45.54
2023-05-22T07:35:48.969Z,45.19
2023-05-22T07:38:17.145Z,45.22
2023-05-22T07:40:57.212Z,44.80
2023-05-22T07:43:25.701Z,45.06
2023-05-22T07:45:56.022Z,44.25
2023-05-22T07:48:24.544Z,44.18
2023-05-22T07:50:52.498Z,44.15
2023-05-22T07:53:20.973Z,44.24
2023-05-22T07:55:53.691Z,44.10
2023-05-22T07:58:25.798Z,43.93
2023-05-22T08:00:54.051Z,44.09
2023-05-22T08:03:24.281Z,44.01
2023-05-22T08:05:52.965Z,43.72
2023-05-22T08:08:22.995Z,43.88
2023-05-22T08:11:03.112Z,44.10
2023-05-22T08:13:32.674Z,43.28
2023-05-22T08:16:01.690Z,44.03
2023-05-22T08:18:30.304Z,44.10
2023-05-22T08:21:01.064Z,43.41
2023-05-22T08:23:29.959Z,43.87
2023-05-22T08:25:59.130Z,43.75
2023-05-22T08:28:27.116Z,43.43
2023-05-22T08:30:55.348Z,43.44
2023-05-22T08:33:23.406Z,43.67
2023-05-22T08:35:51.589Z,43.49
2023-05-22T08:38:19.564Z,43.21
2023-05-22T08:40:52.300Z,43.32
2023-05-22T08:43:21.682Z,43.34
2023-05-22T08:46:06.105Z,42.92
2023-05-22T08:48:34.043Z,42.19
2023-05-22T08:51:06.279Z,42.14
2023-05-22T08:53:37.006Z,42.14
2023-05-22T08:56:07.212Z,41.55
2023-05-22T08:58:38.338Z,41.64
2023-05-22T09:01:09.483Z,41.35
2023-05-22T09:03:38.672Z,41.49
2023-05-22T09:06:10.412Z,41.20
2023-05-22T09:08:42.854Z,40.66
2023-05-22T09:11:11.617Z,40.96
2023-05-22T09:13:41.630Z,41.01
2023-05-22T09:16:12.744Z,40.93
2023-05-22T09:18:42.705Z,40.52
2023-05-22T09:21:25.825Z,40.55
2023-05-22T09:24:01.581Z,40.54
2023-05-22T09:26:30.582Z,40.68
2023-05-22T09:29:00.518Z,40.46
2023-05-22T09:31:30.313Z,40.78
2023-05-22T09:34:01.596Z,40.51
2023-05-22T09:36:33.695Z,40.16
2023-05-22T09:39:04.121Z,40.00
2023-05-22T09:41:39.781Z,40.50
2023-05-22T09:44:17.512Z,39.94
2023-05-22T09:46:47.290Z,39.12
2023-05-22T09:49:19.288Z,37.89
2023-05-22T09:51:50.969Z,37.89
2023-05-22T09:54:21.782Z,38.08
2023-05-22T09:56:51.401Z,37.99
2023-05-22T09:59:27.329Z,37.95
2023-05-22T10:01:57.997Z,38.12
2023-05-22T10:04:33.410Z,37.84
2023-05-22T10:07:03.984Z,37.13
2023-05-22T10:09:38.442Z,37.13
2023-05-22T10:12:10.193Z,37.18
2023-05-22T10:14:38.495Z,37.15
2023-05-22T10:17:07.117Z,37.10
2023-05-22T10:19:39.740Z,36.74
2023-05-22T10:22:21.086Z,35.15
2023-05-22T10:24:52.850Z,36.40
2023-05-22T10:27:28.336Z,36.34
2023-05-22T10:30:09.447Z,36.55
2023-05-22T10:32:49.098Z,36.38
2023-05-22T10:35:33.433Z,36.30
2023-05-22T10:38:33.609Z,36.20
2023-05-22T10:41:04.981Z,35.39
2023-05-22T10:43:33.095Z,35.40
2023-05-22T10:46:06.858Z,34.58
2023-05-22T10:48:48.152Z,34.36
2023-05-22T10:51:21.831Z,32.86
2023-05-22T10:53:57.984Z,33.03
2023-05-22T10:56:37.303Z,33.10
2023-05-22T10:59:08.348Z,32.17
2023-05-22T11:01:38.351Z,30.90
2023-05-22T11:04:17.745Z,30.32
2023-05-22T11:06:49.069Z,31.36
2023-05-22T11:09:28.288Z,32.05
2023-05-22T11:12:18.551Z,32.90
2023-05-22T11:14:55.508Z,33.39
2023-05-22T11:17:30.260Z,34.00
2023-05-22T11:20:26.049Z,34.23
2023-05-22T11:23:07.243Z,34.41
2023-05-22T11:25:39.357Z,34.70
2023-05-22T11:28:08.093Z,34.90
2023-05-22T11:30:37.334Z,34.80
2023-05-22T11:33:06.727Z,33.89
2023-05-22T11:35:38.026Z,33.27
2023-05-22T11:38:09.968Z,32.90
2023-05-22T11:40:40.916Z,33.29
2023-05-22T11:43:09.250Z,33.28
2023-05-22T11:45:39.446Z,33.58
2023-05-22T11:48:09.503Z,33.41
2023-05-22T11:50:43.597Z,33.36
2023-05-22T11:53:12.719Z,33.04
2023-05-22T11:55:43.502Z,33.01
2023-05-22T11:58:11.765Z,33.07
2023-05-22T12:00:39.954Z,32.06
2023-05-22T12:03:08.951Z,32.20
2023-05-22T12:05:38.063Z,32.36
2023-05-22T12:08:06.065Z,32.34
2023-05-22T12:10:34.074Z,32.58
2023-05-22T12:13:02.178Z,32.28
2023-05-22T12:15:30.955Z,32.18
2023-05-22T12:17:59.241Z,32.42
2023-05-22T12:20:31.585Z,32.56
2023-05-22T12:22:59.932Z,32.72
2023-05-22T12:25:39.050Z,32.62
2023-05-22T12:28:07.610Z,32.70
2023-05-22T12:30:43.193Z,32.74
2023-05-22T12:33:17.926Z,32.45
2023-05-22T12:35:46.250Z,32.23
2023-05-22T12:38:14.486Z,31.94
2023-05-22T12:40:42.984Z,31.57
2023-05-22T12:43:11.448Z,30.79
2023-05-22T12:45:42.525Z,30.50
2023-05-22T12:48:10.420Z,30.42
2023-05-22T12:50:39.141Z,30.00
2023-05-22T12:53:07.371Z,29.95
2023-05-22T12:55:36.812Z,29.66
2023-05-22T12:58:07.814Z,29.72
2023-05-22T13:00:36.100Z,29.68
2023-05-22T13:03:06.640Z,29.76
2023-05-22T13:05:34.964Z,29.72
2023-05-22T13:08:02.921Z,30.01
2023-05-22T13:10:30.882Z,30.34
2023-05-22T13:12:59.414Z,30.04
2023-05-22T13:15:32.611Z,29.72
2023-05-22T13:18:00.639Z,29.12
2023-05-22T13:20:28.689Z,28.72
2023-05-22T13:22:57.395Z,28.64
2023-05-22T13:25:26.170Z,28.39
2023-05-22T13:27:55.141Z,28.28
2023-05-22T13:30:24.483Z,28.43
2023-05-22T13:32:53.386Z,28.48
2023-05-22T13:35:22.561Z,28.31
2023-05-22T13:37:52.361Z,28.36
2023-05-22T13:40:20.887Z,28.55
2023-05-22T13:42:53.474Z,28.79
2023-05-22T13:45:21.756Z,29.42
2023-05-22T13:47:49.857Z,29.80
2023-05-22T13:50:20.696Z,29.79
2023-05-22T13:52:49.277Z,30.31
2023-05-22T13:55:17.178Z,30.43
2023-05-22T13:57:45.227Z,30.56
2023-05-22T14:00:16.355Z,30.69
2023-05-22T14:02:46.558Z,30.60
2023-05-22T14:05:15.672Z,30.92
2023-05-22T14:07:43.783Z,31.09
2023-05-22T14:10:11.902Z,31.20
2023-05-22T14:12:41.350Z,31.20
2023-05-22T14:15:11.186Z,31.23
2023-05-22T14:17:40.650Z,31.68
2023-05-22T14:20:14.452Z,32.17
2023-05-22T14:22:56.409Z,32.76
2023-05-22T14:25:27.483Z,33.32
2023-05-22T14:27:57.668Z,33.89
2023-05-22T14:30:25.697Z,34.31
2023-05-22T14:32:55.185Z,34.67
2023-05-22T14:35:25.393Z,35.27
2023-05-22T14:37:53.711Z,35.69
2023-05-22T14:40:23.760Z,36.00
2023-05-22T14:42:54.449Z,36.51
2023-05-22T14:45:22.725Z,36.94
2023-05-22T14:47:51.217Z,37.13
2023-05-22T14:50:20.886Z,37.66
2023-05-22T14:52:49.771Z,37.64
2023-05-22T14:55:18.294Z,37.68
2023-05-22T14:57:46.387Z,37.71
2023-05-22T15:00:16.526Z,37.13
2023-05-22T15:02:44.953Z,36.92
2023-05-22T15:05:14.039Z,36.76
2023-05-22T15:07:45.582Z,36.70
2023-05-22T15:10:16.264Z,36.67
2023-05-22T15:12:46.834Z,36.73
2023-05-22T15:15:14.820Z,37.19
2023-05-22T15:17:43.586Z,37.30
2023-05-22T15:20:12.908Z,37.11
2023-05-22T15:22:41.662Z,36.98
2023-05-22T15:25:16.219Z,37.27
2023-05-22T15:27:44.985Z,37.44
2023-05-22T15:30:15.620Z,37.76
2023-05-22T15:32:45.534Z,37.98
2023-05-22T15:35:15.519Z,38.41
2023-05-22T15:37:45.591Z,38.71
2023-05-22T15:40:18.373Z,38.92
2023-05-22T15:42:46.480Z,38.93
2023-05-22T15:45:16.559Z,38.89
2023-05-22T15:47:48.354Z,38.83
2023-05-22T15:50:17.215Z,38.97
2023-05-22T15:52:48.124Z,39.34
2023-05-22T15:55:16.119Z,39.38
2023-05-22T15:57:44.029Z,39.90
2023-05-22T16:00:15.233Z,40.28
2023-05-22T16:02:44.521Z,40.92
2023-05-22T16:05:12.656Z,41.63
2023-05-22T16:07:41.034Z,41.94
2023-05-22T16:10:11.990Z,42.55
2023-05-22T16:12:41.476Z,42.80
2023-05-22T16:15:12.328Z,43.16
2023-05-22T16:17:40.944Z,43.56
2023-05-22T16:20:12.141Z,43.73
2023-05-22T16:25:18.623Z,43.50
2023-05-22T16:27:48.255Z,42.77
2023-05-22T16:30:17.785Z,42.77
2023-05-22T16:32:47.103Z,42.96
2023-05-22T16:35:17.921Z,42.77
2023-05-22T16:37:46.074Z,42.39
2023-05-22T16:40:14.569Z,41.74
2023-05-22T16:42:45.491Z,40.55
2023-05-22T16:45:13.353Z,40.28
2023-05-22T16:47:43.036Z,40.61
2023-05-22T16:50:11.222Z,40.64
2023-05-22T16:52:39.447Z,40.45
2023-05-22T16:55:11.432Z,40.65
2023-05-22T16:57:40.645Z,40.63
2023-05-22T17:00:11.052Z,40.64
2023-05-22T17:02:44.191Z,40.90
2023-05-22T17:05:12.117Z,41.11
2023-05-22T17:07:39.935Z,41.09
2023-05-22T17:10:10.966Z,41.02
2023-05-22T17:12:38.858Z,41.67
2023-05-22T17:15:10.635Z,42.02
2023-05-22T17:17:40.710Z,42.80
2023-05-22T17:20:10.373Z,43.50
2023-05-22T17:22:39.993Z,44.26
2023-05-22T17:25:08.781Z,44.40
2023-05-22T17:27:37.053Z,44.94
2023-05-22T17:30:08.634Z,45.30
2023-05-22T17:32:38.102Z,45.80
2023-05-22T17:35:07.126Z,46.27
2023-05-22T17:37:35.695Z,46.71
2023-05-22T17:40:04.925Z,47.10
2023-05-22T17:42:32.774Z,47.38
2023-05-22T17:45:03.778Z,47.86
2023-05-22T17:47:33.504Z,48.24
2023-05-22T17:50:01.733Z,48.53
2023-05-22T17:52:31.220Z,48.91
2023-05-22T17:55:02.142Z,48.93
2023-05-22T17:57:32.099Z,49.38
2023-05-22T18:00:01.410Z,49.82
2023-05-22T18:02:29.661Z,50.18
2023-05-22T18:04:58.049Z,50.31
2023-05-22T18:07:26.082Z,50.63
2023-05-22T18:09:55.720Z,50.73
2023-05-22T18:12:31.057Z,51.18
2023-05-22T18:15:00.521Z,51.50
2023-05-22T18:17:30.261Z,51.81
2023-05-22T18:20:00.107Z,52.10
2023-05-22T18:22:28.759Z,51.83
2023-05-22T18:24:58.812Z,51.76
2023-05-22T18:27:31.399Z,51.86
2023-05-22T18:29:59.567Z,52.59
2023-05-22T18:32:27.468Z,52.45
2023-05-22T18:34:59.060Z,52.64
2023-05-22T18:37:30.960Z,52.72
2023-05-22T18:39:59.497Z,53.02
2023-05-22T18:42:28.262Z,53.28
2023-05-22T18:45:05.726Z,54.00
2023-05-22T18:47:35.044Z,54.54
2023-05-22T18:50:05.292Z,55.21
2023-05-22T18:52:33.286Z,55.57
2023-05-22T18:55:05.182Z,56.34
2023-05-22T18:57:33.788Z,55.80
2023-05-22T19:00:01.735Z,55.94
2023-05-22T19:02:29.809Z,56.22
2023-05-22T19:04:58.510Z,56.03
2023-05-22T19:07:27.051Z,56.38
2023-05-22T19:09:55.410Z,56.60
2023-05-22T19:12:24.727Z,56.90
2023-05-22T19:14:52.716Z,57.16
2023-05-22T19:17:21.411Z,57.76
2023-05-22T19:19:49.469Z,58.13
2023-05-22T19:22:18.397Z,58.58
2023-05-22T19:24:48.221Z,58.87
2023-05-22T19:27:16.198Z,59.29
2023-05-22T19:29:47.834Z,59.30
2023-05-22T19:32:17.015Z,59.48
2023-05-22T19:34:44.900Z,60.03
2023-05-22T19:37:13.014Z,60.16
2023-05-22T19:39:41.219Z,60.02
2023-05-22T19:42:10.843Z,60.51
2023-05-22T19:44:39.751Z,60.54
2023-05-22T19:47:11.107Z,60.78
2023-05-22T19:49:39.069Z,60.94
2023-05-22T19:52:07.233Z,61.21
2023-05-22T19:54:36.234Z,65.85
2023-05-22T19:57:07.362Z,68.26
2023-05-22T19:59:36.791Z,63.27
2023-05-22T20:02:05.777Z,56.29
2023-05-22T20:04:34.442Z,53.61
2023-05-22T20:07:07.380Z,53.97
2023-05-22T20:09:35.590Z,54.75
2023-05-22T20:12:03.562Z,55.98
2023-05-22T20:14:33.254Z,57.06
2023-05-22T20:17:02.419Z,57.36
2023-05-22T20:19:34.920Z,58.35
2023-05-22T20:22:05.398Z,59.14
2023-05-22T20:24:35.970Z,59.49
2023-05-22T20:27:07.155Z,60.22
2023-05-22T20:29:36.966Z,60.65
2023-05-22T20:32:05.612Z,60.98
2023-05-22T20:34:34.275Z,61.55
2023-05-22T20:37:05.283Z,64.12
2023-05-22T20:39:33.616Z,64.16
2023-05-22T20:42:03.118Z,57.78
2023-05-22T20:44:32.266Z,55.06
2023-05-22T20:47:01.349Z,56.20
2023-05-22T20:49:37.384Z,57.56
2023-05-22T20:52:05.847Z,59.26
2023-05-22T20:54:35.012Z,59.24
2023-05-22T20:57:06.517Z,60.19
2023-05-22T20:59:37.864Z,60.73
2023-05-22T21:02:08.084Z,61.88
2023-05-22T21:04:36.037Z,65.03
2023-05-22T21:07:05.042Z,61.28
2023-05-22T21:09:32.979Z,58.70
2023-05-22T21:12:04.661Z,56.83
2023-05-22T21:14:33.104Z,57.16
2023-05-22T21:17:01.239Z,58.14
2023-05-22T21:19:29.643Z,58.64
2023-05-22T21:21:58.559Z,59.23
2023-05-22T21:24:29.043Z,60.38
2023-05-22T21:26:59.873Z,61.08
2023-05-22T21:29:27.762Z,63.38
2023-05-22T21:31:57.506Z,64.32
2023-05-22T21:34:25.930Z,62.15
2023-05-22T21:36:53.810Z,57.31
2023-05-22T21:39:22.065Z,54.44
2023-05-22T21:41:51.205Z,55.35
2023-05-22T21:44:20.421Z,56.20
2023-05-22T21:46:48.439Z,57.10
2023-05-22T21:49:19.384Z,58.57
2023-05-22T21:51:47.443Z,59.12
2023-05-22T21:54:16.104Z,59.95
2023-05-22T21:56:44.653Z,60.35
2023-05-22T21:59:12.573Z,61.04
2023-05-22T22:01:41.581Z,64.48
2023-05-22T22:04:12.054Z,65.62
2023-05-22T22:06:40.505Z,62.92
2023-05-22T22:09:09.916Z,57.48
2023-05-22T22:11:40.676Z,54.58
2023-05-22T22:14:09.180Z,55.17
2023-05-22T22:16:40.934Z,56.25
2023-05-22T22:19:09.779Z,57.64
2023-05-22T22:21:38.511Z,58.16
2023-05-22T22:24:06.872Z,59.72
2023-05-22T22:26:35.586Z,59.64
2023-05-22T22:29:04.832Z,59.86
2023-05-22T22:31:33.672Z,60.78
2023-05-22T22:34:04.067Z,65.59
2023-05-22T22:36:33.643Z,68.18
2023-05-22T22:39:02.501Z,65.38
2023-05-22T22:41:30.555Z,62.06
2023-05-22T22:44:01.506Z,56.55
2023-05-22T22:46:29.625Z,55.58
2023-05-22T22:49:01.897Z,57.19
2023-05-22T22:51:32.703Z,57.76
2023-05-22T22:54:00.803Z,58.23
2023-05-22T22:56:29.503Z,59.39
2023-05-22T22:58:58.318Z,60.26
2023-05-22T23:01:26.539Z,64.60
2023-05-22T23:03:57.657Z,67.32
2023-05-22T23:06:29.860Z,63.47
2023-05-22T23:09:06.300Z,61.47
2023-05-22T23:11:38.623Z,57.76
2023-05-22T23:14:09.802Z,56.09
2023-05-22T23:16:44.293Z,56.23
2023-05-22T23:19:15.405Z,57.01
2023-05-22T23:21:43.362Z,58.25
2023-05-22T23:24:28.370Z,60.36
2023-05-22T23:26:59.383Z,64.02
2023-05-22T23:29:30.021Z,62.70
2023-05-22T23:31:58.071Z,61.83
2023-05-22T23:34:26.247Z,58.18
2023-05-22T23:36:54.358Z,56.47
2023-05-22T23:39:23.769Z,58.43
2023-05-22T23:41:54.192Z,60.13
2023-05-22T23:44:22.250Z,61.00
2023-05-22T23:46:51.403Z,68.12
2023-05-22T23:49:22.178Z,69.37
2023-05-22T23:51:52.414Z,62.85
2023-05-22T23:54:21.983Z,57.46
2023-05-22T23:56:50.886Z,56.35
2023-05-22T23:59:26.556Z,58.58
